createdAt,value
2022-07-26T00:02:26.346Z,35.42
2022-07-26T00:05:29.408Z,35.59
2022-07-26T00:08:31.927Z,35.72
2022-07-26T00:11:34.486Z,35.65
2022-07-26T00:14:37.259Z,35.13
2022-07-26T00:17:39.907Z,34.51
2022-07-26T00:20:42.659Z,34.21
2022-07-26T00:23:45.344Z,33.80
2022-07-26T00:26:47.770Z,33.38
2022-07-26T00:29:50.247Z,32.59
2022-07-26T00:32:55.940Z,32.09
2022-07-26T00:35:58.416Z,32.02
2022-07-26T00:39:00.856Z,31.88
2022-07-26T00:42:03.416Z,31.76
2022-07-26T00:45:06.818Z,31.70
2022-07-26T00:48:09.399Z,31.77
2022-07-26T00:51:11.937Z,31.90
2022-07-26T00:54:17.017Z,31.97
2022-07-26T00:57:20.111Z,32.10
2022-07-26T01:00:26.461Z,32.21
2022-07-26T01:03:29.078Z,32.27
2022-07-26T01:06:33.032Z,31.40
2022-07-26T01:09:35.844Z,31.22
2022-07-26T01:12:38.852Z,31.98
2022-07-26T01:15:41.357Z,32.28
2022-07-26T01:18:44.144Z,32.49
2022-07-26T01:21:46.981Z,32.57
2022-07-26T01:24:49.837Z,32.76
2022-07-26T01:27:53.304Z,32.81
2022-07-26T01:30:56.329Z,32.81
2022-07-26T01:33:59.216Z,32.90
2022-07-26T01:37:01.963Z,33.00
2022-07-26T01:40:04.790Z,32.96
2022-07-26T01:43:09.675Z,32.98
2022-07-26T01:46:13.787Z,32.99
2022-07-26T01:49:16.621Z,33.15
2022-07-26T01:52:19.218Z,33.20
2022-07-26T01:55:21.842Z,33.20
2022-07-26T01:58:24.820Z,33.62
2022-07-26T02:01:39.255Z,34.70
2022-07-26T02:05:01.786Z,35.37
2022-07-26T02:08:04.376Z,35.72
2022-07-26T02:11:07.051Z,36.01
2022-07-26T02:14:09.905Z,36.28
2022-07-26T02:17:13.089Z,36.54
2022-07-26T02:20:17.081Z,36.62
2022-07-26T02:23:19.912Z,36.69
2022-07-26T02:26:22.155Z,36.48
2022-07-26T02:29:25.398Z,36.45
2022-07-26T02:32:29.873Z,36.42
2022-07-26T02:35:32.657Z,36.30
2022-07-26T02:38:34.919Z,36.60
2022-07-26T02:41:37.701Z,36.74
2022-07-26T02:44:41.584Z,36.87
2022-07-26T02:47:51.108Z,37.15
2022-07-26T02:50:53.380Z,37.08
2022-07-26T02:53:56.055Z,37.07
2022-07-26T02:56:58.313Z,37.00
2022-07-26T03:00:01.030Z,36.86
2022-07-26T03:03:03.563Z,36.95
2022-07-26T03:06:06.436Z,36.86
2022-07-26T03:09:08.955Z,36.95
2022-07-26T03:12:11.693Z,37.33
2022-07-26T03:15:13.919Z,37.84
2022-07-26T03:18:16.660Z,38.53
2022-07-26T03:21:19.031Z,39.49
2022-07-26T03:24:21.736Z,39.30
2022-07-26T03:27:24.965Z,39.38
2022-07-26T03:30:27.820Z,40.51
2022-07-26T03:33:30.189Z,40.85
2022-07-26T03:36:32.922Z,41.43
2022-07-26T03:39:35.508Z,41.82
2022-07-26T03:42:38.439Z,42.14
2022-07-26T03:45:42.367Z,42.37
2022-07-26T03:48:45.157Z,42.55
2022-07-26T03:51:48.387Z,42.71
2022-07-26T03:54:51.102Z,42.70
2022-07-26T03:57:53.593Z,42.62
2022-07-26T04:00:56.314Z,42.62
2022-07-26T04:03:59.003Z,42.39
2022-07-26T04:07:03.221Z,42.14
2022-07-26T04:10:06.893Z,41.60
2022-07-26T04:13:09.327Z,41.13
2022-07-26T04:16:11.898Z,40.68
2022-07-26T04:19:14.585Z,40.30
2022-07-26T04:22:17.094Z,40.19
2022-07-26T04:25:19.665Z,40.31
2022-07-26T04:28:22.491Z,40.56
2022-07-26T04:31:25.569Z,40.31
2022-07-26T04:34:28.136Z,40.00
2022-07-26T04:37:32.902Z,39.99
2022-07-26T04:40:40.773Z,39.62
2022-07-26T04:43:43.541Z,39.49
2022-07-26T04:46:46.075Z,39.55
2022-07-26T04:49:48.508Z,39.54
2022-07-26T04:52:51.820Z,39.24
2022-07-26T04:55:54.313Z,38.24
2022-07-26T04:58:56.832Z,36.03
2022-07-26T05:01:59.486Z,35.95
2022-07-26T05:05:02.166Z,35.17
2022-07-26T05:08:04.846Z,34.39
2022-07-26T05:11:07.837Z,34.68
2022-07-26T05:14:10.726Z,34.63
2022-07-26T05:17:17.752Z,34.48
2022-07-26T05:20:20.490Z,34.10
2022-07-26T05:23:23.304Z,33.89
2022-07-26T05:26:25.795Z,34.15
2022-07-26T05:29:28.302Z,34.11
2022-07-26T05:32:31.929Z,34.21
2022-07-26T05:35:34.463Z,34.04
2022-07-26T05:38:37.074Z,34.15
2022-07-26T05:41:39.523Z,33.82
2022-07-26T05:44:44.515Z,33.86
2022-07-26T05:47:49.809Z,33.98
2022-07-26T05:50:52.732Z,33.91
2022-07-26T05:53:55.225Z,33.66
2022-07-26T05:56:57.631Z,33.72
2022-07-26T06:00:00.152Z,33.63
2022-07-26T06:03:25.820Z,33.28
2022-07-26T06:06:28.631Z,32.82
2022-07-26T06:09:31.170Z,32.79
2022-07-26T06:12:33.637Z,32.43
2022-07-26T06:15:37.952Z,32.62
2022-07-26T06:18:40.441Z,33.81
2022-07-26T06:21:42.983Z,35.89
2022-07-26T06:24:45.517Z,36.96
2022-07-26T06:27:47.955Z,37.03
2022-07-26T06:30:50.434Z,37.05
2022-07-26T06:33:52.847Z,37.26
2022-07-26T06:36:55.560Z,37.64
2022-07-26T06:39:58.670Z,37.42
2022-07-26T06:43:04.480Z,37.63
2022-07-26T06:46:07.456Z,37.55
2022-07-26T06:49:10.075Z,37.58
2022-07-26T06:52:12.890Z,37.48
2022-07-26T06:55:15.543Z,36.90
2022-07-26T06:58:18.554Z,36.77
2022-07-26T07:01:58.084Z,36.41
2022-07-26T07:04:43.668Z,36.49
2022-07-26T07:07:46.396Z,35.90
2022-07-26T07:10:49.502Z,35.86
2022-07-26T07:13:53.581Z,35.44
2022-07-26T07:16:56.712Z,34.97
2022-07-26T07:20:00.537Z,34.61
2022-07-26T07:23:03.042Z,34.37
2022-07-26T07:26:05.608Z,34.15
2022-07-26T07:29:12.020Z,33.53
2022-07-26T07:32:18.175Z,33.44
2022-07-26T07:35:22.275Z,32.88
2022-07-26T07:38:24.812Z,32.32
2022-07-26T07:41:27.329Z,32.03
2022-07-26T07:44:30.603Z,31.68
2022-07-26T07:47:34.709Z,31.41
2022-07-26T07:50:37.500Z,30.94
2022-07-26T07:53:40.142Z,30.77
2022-07-26T07:56:43.035Z,30.35
2022-07-26T07:59:46.204Z,30.15
2022-07-26T08:02:48.736Z,29.32
2022-07-26T08:05:51.534Z,29.18
2022-07-26T08:08:53.732Z,29.49
2022-07-26T08:11:56.598Z,29.47
2022-07-26T08:14:58.867Z,28.56
2022-07-26T08:18:02.068Z,27.85
2022-07-26T08:21:06.854Z,27.86
2022-07-26T08:24:10.835Z,28.24
2022-07-26T08:27:13.568Z,28.60
2022-07-26T08:30:16.276Z,29.14
2022-07-26T08:33:18.769Z,29.70
2022-07-26T08:36:21.463Z,29.49
2022-07-26T08:39:23.702Z,28.70
2022-07-26T08:42:26.391Z,28.53
2022-07-26T08:45:29.417Z,28.31
2022-07-26T08:48:36.960Z,28.33
2022-07-26T08:51:43.178Z,27.67
2022-07-26T08:54:47.668Z,26.66
2022-07-26T08:57:49.916Z,26.04
2022-07-26T09:01:05.969Z,25.27
2022-07-26T09:04:30.525Z,24.82
2022-07-26T09:07:34.272Z,24.15
2022-07-26T09:10:39.175Z,24.67
2022-07-26T09:13:59.205Z,24.09
2022-07-26T09:17:01.495Z,23.45
2022-07-26T09:20:06.921Z,23.53
2022-07-26T09:23:11.700Z,24.71
2022-07-26T09:26:19.914Z,25.67
2022-07-26T09:29:22.306Z,26.44
2022-07-26T09:32:26.323Z,27.27
2022-07-26T09:35:50.597Z,28.13
2022-07-26T09:38:53.664Z,28.70
2022-07-26T09:42:25.096Z,29.60
2022-07-26T09:45:19.545Z,30.13
2022-07-26T09:48:33.082Z,31.02
2022-07-26T09:51:45.720Z,32.17
2022-07-26T09:54:49.478Z,33.77
2022-07-26T09:57:52.505Z,35.74
2022-07-26T10:01:00.451Z,37.80
2022-07-26T10:04:05.057Z,40.29
2022-07-26T10:07:07.826Z,41.44
2022-07-26T10:10:14.701Z,43.17
2022-07-26T10:13:17.325Z,44.44
2022-07-26T10:16:33.164Z,46.85
2022-07-26T10:19:41.441Z,48.16
2022-07-26T10:22:49.089Z,50.00
2022-07-26T10:25:51.419Z,54.44
2022-07-26T10:28:54.251Z,55.23
2022-07-26T10:31:56.478Z,55.60
2022-07-26T10:34:59.234Z,56.19
2022-07-26T10:38:06.760Z,55.69
2022-07-26T10:41:09.466Z,56.16
2022-07-26T10:44:13.216Z,56.35
2022-07-26T10:47:18.486Z,56.24
2022-07-26T10:50:32.487Z,56.83
2022-07-26T10:53:35.462Z,57.29
2022-07-26T10:56:38.072Z,57.59
2022-07-26T10:59:57.640Z,57.33
2022-07-26T11:03:00.060Z,57.85
2022-07-26T11:06:16.192Z,58.46
2022-07-26T11:09:21.123Z,57.34
2022-07-26T11:12:24.422Z,56.73
2022-07-26T11:15:26.653Z,56.71
2022-07-26T11:18:47.916Z,56.87
2022-07-26T11:21:58.623Z,56.89
2022-07-26T11:25:01.472Z,56.83
2022-07-26T11:28:07.217Z,56.65
2022-07-26T11:31:10.823Z,56.80
2022-07-26T11:34:18.179Z,57.02
2022-07-26T11:37:20.674Z,57.42
2022-07-26T11:40:42.028Z,57.02
2022-07-26T11:43:44.720Z,56.03
2022-07-26T11:46:47.937Z,56.02
2022-07-26T11:50:00.500Z,55.81
2022-07-26T11:53:22.224Z,54.83
2022-07-26T11:56:25.732Z,54.96
2022-07-26T11:59:29.399Z,54.73
2022-07-26T12:02:32.183Z,54.71
2022-07-26T12:05:35.379Z,54.34
2022-07-26T12:08:56.354Z,54.58
2022-07-26T12:11:59.752Z,54.20
2022-07-26T12:15:06.161Z,53.75
2022-07-26T12:18:09.907Z,53.11
2022-07-26T12:21:12.555Z,52.39
2022-07-26T12:24:34.525Z,51.79
2022-07-26T12:27:45.281Z,51.60
2022-07-26T12:30:48.048Z,51.63
2022-07-26T12:33:50.656Z,52.08
2022-07-26T12:36:53.354Z,51.77
2022-07-26T12:40:00.839Z,51.60
2022-07-26T12:43:03.588Z,51.48
2022-07-26T12:46:06.046Z,50.92
2022-07-26T12:49:08.867Z,50.61
2022-07-26T12:52:11.153Z,50.83
2022-07-26T12:55:16.620Z,50.45
2022-07-26T12:58:18.802Z,51.04
2022-07-26T13:01:21.799Z,51.40
2022-07-26T13:04:24.204Z,51.39
2022-07-26T13:07:27.056Z,50.79
2022-07-26T13:10:33.671Z,51.08
2022-07-26T13:13:37.169Z,51.21
2022-07-26T13:16:39.463Z,51.07
2022-07-26T13:19:42.578Z,50.82
2022-07-26T13:22:44.842Z,49.80
2022-07-26T13:25:47.537Z,48.27
2022-07-26T13:28:50.231Z,45.75
2022-07-26T13:31:53.932Z,44.51
2022-07-26T13:34:56.189Z,43.67
2022-07-26T13:37:59.075Z,43.97
2022-07-26T13:41:02.338Z,44.56
2022-07-26T13:44:05.632Z,45.58
2022-07-26T13:47:07.892Z,46.37
2022-07-26T13:50:10.662Z,47.23
2022-07-26T13:53:13.155Z,47.19
2022-07-26T13:56:15.966Z,47.11
2022-07-26T13:59:18.208Z,47.19
2022-07-26T14:02:21.284Z,47.28
2022-07-26T14:05:24.630Z,47.05
2022-07-26T14:08:27.192Z,46.83
2022-07-26T14:11:30.201Z,46.33
2022-07-26T14:14:32.846Z,46.13
2022-07-26T14:17:36.954Z,46.43
2022-07-26T14:20:39.415Z,46.32
2022-07-26T14:23:41.888Z,46.20
2022-07-26T14:26:44.310Z,46.25
2022-07-26T14:29:49.555Z,46.09
2022-07-26T14:32:52.051Z,45.86
2022-07-26T14:35:54.543Z,46.44
2022-07-26T14:38:56.982Z,46.71
2022-07-26T14:42:00.060Z,47.16
2022-07-26T14:45:02.503Z,47.35
2022-07-26T14:48:05.130Z,47.54
2022-07-26T14:51:09.449Z,47.85
2022-07-26T14:54:13.422Z,47.73
2022-07-26T14:57:16.365Z,47.46
2022-07-26T15:00:18.929Z,47.41
2022-07-26T15:03:21.414Z,47.29
2022-07-26T15:06:23.903Z,47.07
2022-07-26T15:09:26.381Z,47.29
2022-07-26T15:12:28.967Z,47.18
2022-07-26T15:15:31.619Z,47.65
2022-07-26T15:18:34.181Z,47.79
2022-07-26T15:21:36.654Z,47.58
2022-07-26T15:24:40.118Z,47.87
2022-07-26T15:27:42.774Z,48.21
2022-07-26T15:30:45.350Z,48.60
2022-07-26T15:33:47.812Z,49.13
2022-07-26T15:36:50.334Z,49.27
2022-07-26T15:39:53.135Z,49.15
2022-07-26T15:42:55.735Z,48.79
2022-07-26T15:45:58.808Z,48.96
2022-07-26T15:49:02.476Z,48.94
2022-07-26T15:52:05.410Z,49.04
2022-07-26T15:55:08.772Z,48.97
2022-07-26T15:58:13.285Z,48.87
2022-07-26T16:01:16.092Z,48.93
2022-07-26T16:04:18.830Z,49.01
2022-07-26T16:07:21.141Z,49.46
2022-07-26T16:10:23.928Z,49.44
2022-07-26T16:13:26.163Z,49.36
2022-07-26T16:16:29.929Z,49.27
2022-07-26T16:19:32.444Z,49.12
2022-07-26T16:22:35.896Z,49.36
2022-07-26T16:25:40.587Z,49.33
2022-07-26T16:28:43.487Z,48.82
2022-07-26T16:31:45.917Z,48.92
2022-07-26T16:34:48.715Z,48.82
2022-07-26T16:37:51.030Z,48.76
2022-07-26T16:40:53.737Z,48.91
2022-07-26T16:43:56.256Z,48.70
2022-07-26T16:46:59.085Z,48.75
2022-07-26T16:50:01.352Z,49.20
2022-07-26T16:53:04.101Z,49.25
2022-07-26T16:56:06.789Z,49.06
2022-07-26T16:59:10.591Z,49.12
2022-07-26T17:02:13.260Z,49.01
2022-07-26T17:05:16.180Z,49.25
2022-07-26T17:08:18.597Z,49.41
2022-07-26T17:11:21.374Z,47.44
2022-07-26T17:14:23.909Z,47.43
2022-07-26T17:17:27.065Z,46.97
2022-07-26T17:20:29.341Z,46.62
2022-07-26T17:23:32.224Z,46.99
2022-07-26T17:26:37.317Z,47.26
2022-07-26T17:29:40.282Z,47.47
2022-07-26T17:32:42.638Z,47.88
2022-07-26T17:35:45.424Z,48.44
2022-07-26T17:38:47.996Z,48.60
2022-07-26T17:41:51.927Z,48.63
2022-07-26T17:44:54.137Z,48.80
2022-07-26T17:47:56.938Z,48.81
2022-07-26T17:50:59.196Z,49.01
2022-07-26T17:54:01.937Z,48.85
2022-07-26T17:57:06.116Z,49.14
2022-07-26T18:00:09.193Z,49.33
2022-07-26T18:03:11.784Z,49.50
2022-07-26T18:06:14.352Z,49.73
2022-07-26T18:09:16.888Z,49.72
2022-07-26T18:12:19.318Z,50.06
2022-07-26T18:15:21.964Z,50.24
2022-07-26T18:18:24.509Z,50.75
2022-07-26T18:21:27.149Z,51.01
2022-07-26T18:24:29.773Z,51.34
2022-07-26T18:27:32.643Z,51.48
2022-07-26T18:30:35.465Z,51.66
2022-07-26T18:33:38.026Z,52.16
2022-07-26T18:36:40.507Z,52.46
2022-07-26T18:39:43.215Z,52.63
2022-07-26T18:42:45.923Z,52.83
2022-07-26T18:45:49.355Z,53.27
2022-07-26T18:48:52.655Z,53.56
2022-07-26T18:51:56.929Z,53.61
2022-07-26T18:55:01.742Z,54.02
2022-07-26T18:58:06.974Z,54.24
2022-07-26T19:01:11.130Z,54.56
2022-07-26T19:04:13.720Z,54.84
2022-07-26T19:07:16.228Z,54.96
2022-07-26T19:10:22.675Z,55.04
2022-07-26T19:13:27.116Z,55.28
2022-07-26T19:16:29.706Z,55.59
2022-07-26T19:19:32.352Z,55.67
2022-07-26T19:22:35.250Z,55.92
2022-07-26T19:25:38.827Z,56.27
2022-07-26T19:28:41.320Z,56.46
2022-07-26T19:31:46.074Z,56.89
2022-07-26T19:34:49.278Z,57.09
2022-07-26T19:37:51.765Z,57.08
2022-07-26T19:40:55.269Z,57.29
2022-07-26T19:43:57.926Z,57.36
2022-07-26T19:47:00.653Z,57.35
2022-07-26T19:50:04.593Z,57.33
2022-07-26T19:53:07.140Z,57.20
2022-07-26T19:56:09.722Z,57.44
2022-07-26T19:59:12.811Z,57.61
2022-07-26T20:02:15.862Z,57.56
2022-07-26T20:05:18.607Z,57.65
2022-07-26T20:08:21.390Z,57.79
2022-07-26T20:11:24.914Z,57.79
2022-07-26T20:14:27.599Z,57.93
2022-07-26T20:17:35.423Z,58.03
2022-07-26T20:20:37.907Z,58.07
2022-07-26T20:23:41.297Z,58.22
2022-07-26T20:26:43.872Z,58.31
2022-07-26T20:29:46.481Z,58.35
2022-07-26T20:32:48.944Z,58.43
2022-07-26T20:35:55.032Z,57.87
2022-07-26T20:38:57.898Z,57.65
2022-07-26T20:42:01.547Z,57.79
2022-07-26T20:45:04.504Z,57.83
2022-07-26T20:48:07.329Z,57.46
2022-07-26T20:51:13.495Z,57.65
2022-07-26T20:54:16.456Z,57.74
2022-07-26T20:57:22.364Z,57.69
2022-07-26T21:00:26.192Z,57.43
2022-07-26T21:03:29.350Z,57.54
2022-07-26T21:06:33.275Z,57.26
2022-07-26T21:09:36.054Z,57.28
2022-07-26T21:12:38.625Z,57.30
2022-07-26T21:15:42.408Z,56.99
2022-07-26T21:18:45.453Z,56.93
2022-07-26T21:21:57.156Z,56.95
2022-07-26T21:24:59.819Z,56.67
2022-07-26T21:28:02.363Z,56.71
2022-07-26T21:31:04.889Z,56.71
2022-07-26T21:34:07.540Z,56.68
2022-07-26T21:37:10.077Z,56.78
2022-07-26T21:40:12.714Z,57.04
2022-07-26T21:43:15.403Z,57.21
2022-07-26T21:46:17.908Z,57.15
2022-07-26T21:49:21.426Z,57.44
2022-07-26T21:52:23.978Z,57.66
2022-07-26T21:55:26.587Z,57.62
2022-07-26T21:58:31.210Z,57.56
2022-07-26T22:01:37.169Z,57.34
2022-07-26T22:04:39.992Z,57.15
2022-07-26T22:07:43.823Z,56.85
2022-07-26T22:10:46.579Z,56.89
2022-07-26T22:13:48.838Z,56.41
2022-07-26T22:16:51.593Z,56.11
2022-07-26T22:19:53.903Z,54.79
2022-07-26T22:22:59.966Z,54.03
2022-07-26T22:26:03.359Z,53.94
2022-07-26T22:29:06.133Z,53.56
2022-07-26T22:32:08.927Z,52.21
2022-07-26T22:35:12.734Z,52.00
2022-07-26T22:38:15.235Z,51.61
2022-07-26T22:41:17.936Z,51.88
2022-07-26T22:44:20.158Z,51.74
2022-07-26T22:47:22.924Z,51.49
2022-07-26T22:50:25.412Z,51.68
2022-07-26T22:53:28.327Z,51.51
2022-07-26T22:56:30.529Z,51.06
2022-07-26T22:59:33.330Z,50.56
2022-07-26T23:02:36.231Z,50.56
2022-07-26T23:05:46.396Z,50.40
2022-07-26T23:08:49.866Z,50.23
2022-07-26T23:11:52.584Z,49.51
2022-07-26T23:14:54.864Z,49.41
2022-07-26T23:17:57.584Z,49.15
2022-07-26T23:21:00.076Z,49.27
2022-07-26T23:24:02.788Z,49.44
2022-07-26T23:27:05.025Z,49.57
2022-07-26T23:30:08.012Z,49.58
2022-07-26T23:33:10.292Z,49.85
2022-07-26T23:36:13.233Z,49.87
2022-07-26T23:39:15.628Z,49.86
2022-07-26T23:42:18.401Z,49.69
2022-07-26T23:45:20.749Z,49.32
2022-07-26T23:48:23.520Z,49.20
2022-07-26T23:51:26.196Z,48.90
2022-07-26T23:54:29.095Z,48.69
2022-07-26T23:57:31.339Z,48.51
